الصفحة الرئيسية
METAR-TAF:

METAR-TAF

مطار :

يانغون, بورما

دائرة عرض: 16-46N, خط طول: 096-10E, ارتفاع: 14 متر

مراقبة الطقس الحالي

تاريخ ووقت الإصدار 27 دقيقة قبل الساعة 05:30UTC
ريح 8 عقدة من الشرق/الجنوب الشرقي
درجة الحرارة 33°درجة مئوية
الرطوبة 53%
ضغط 1010 hPa
الرؤية: 7000 متر
غيوم متفرقة على ارتفاع 1800 قدم

METAR: VYYY 310530Z 12008KT 7000 SCT018 33/22 Q1010 NOSIG

زمن: 12:27 (05:57 UTC)

توقعات

تاريخ ووقت الإصدار 57 دقيقة قبل الساعة 05:00UTC
التوقعات صالحة من31 الساعة 06 UTC إلى 01 الساعة 06 UTC
ريح 8 عقدة من الجنوب/الجنوب الشرقي
الرؤية: 8000 متر
مؤقت
من 31 الساعة 06 UTC إلى 31 الساعة 12 UTC
ريح 10 عقدة من الجنوب/الجنوب الشرقي
الرؤية: 6000 متر
العجاج
مؤقت
من 31 الساعة 12 UTC إلى 31 الساعة 18 UTC
ريح 15 عقدة من الغرب/الجنوب الغربي

TAF: VYYY 310500Z 3106/0106 15008KT 8000 NSC TEMPO 3106/3112 15010KT 6000 HZ TEMPO 3112/3118 24015KT

أرصاد الطقس والتوقعات من أكثر من 4000 مطار (تقارير الطقس للمطار METAR والتنبؤ بالطقس بالمطارTAF).

المحطات المتاحة هي النقط الصفراء والحمراء على الخريطة.

حرك المؤشر فوق النقطة لمعرفة اسم المحطة.

ثم انقر لمعرفة أرصاد وتوقعات الطقس.

لتغيير الخارطة: اضغط على الأزرار الخضراء مع رمز الصليب الأسود للتكبير. على الزر الأخضر مع شرطة للتصغير، أو على الأسهم الخضراء للخرائط المجاورة.


METAR-TAF: